Airfield :
LOGIN :

Register | Disclaimer

   EN    FR    IT 

 










Legend :    VFR   Marginal VFR   IFR   Intensive IFR   Very Intensive IFR
Visi :
Ceiling :
>= 8 km
>= 3000ft
5 to 8 km
1000 to 3000 ft
1500m to 5 km
500 to 1000 ft
800 to 1500m
200 to 500 ft
< 800m
< 200 ft
Symbols :   Thunderstorms  Fog  Heavy snow  Heavy precipitations  Wind > 20 kt
SIGMETs :     Misc.  Thunderstorms  Icing  Turbulence  Mountain Waves  Volcanic Ashes






- Airport Elevation : 1470 ft
- IATA code : KLU


LOWK - Klagenfurt

CURRENT METAR :
  • 120650Z VRB02KT 9999 FEW004 BKN012 BKN016 19/17 Q1021 TEMPO SCT015

EXPIRED METARs :
  • 120620Z VRB01KT 9999 FEW004 BKN012 BKN016 18/16 Q1020 TEMPO SCT015
  • 120550Z VRB01KT 9999 FEW004 BKN012 BKN016 18/16 Q1020 TEMPO SCT015
  • 120520Z VRB01KT 9999 FEW004 BKN013 BKN016 17/16 Q1020 TEMPO SCT015
  • 120450Z AUTO VRB01KT 9999 FEW001 BKN011 17/16 Q1020
  • 120420Z AUTO 12003KT 070V150 9999 4400E BR FEW001 BKN011 17/16 Q1020
  • 120350Z AUTO VRB01KT 9999 FEW001 BKN010 17/16 Q1020

TAF TAF LOWK
Valid from the 12 at 06:00 until the 13 at 06:00 UTC


120515Z 1206/1306 VRB02KT 6000 SCT004 BKN008 TX26/1214Z TN17/1304Z
BECMG 1206/1209 FEW040
TEMPO 1212/1218 FEW050CB BKN060
TEMPO 1214/1217 -TSRA
PROB40
TEMPO 1300/1306 2000 BCFG BKN004



MET'MAP, your aeronautical weather chart ! - Copyright ORBIFLY December 2007 - Disclaimer

ORBIFLY MET'MAP TEAM :

Programming & Development : Alexandra Zaïnal
Concept & original design : Baudouin d'Aumeries
Assistance for programming : Marc-Olivier Méhu
Technical & hardware support : Manuel Goepfert

Contact : metmap@orbifly.com




SOURCES & CREDITS :

   NOAA